sensor_id;sensor_type;location;lat;lon;timestamp;P1;durP1;ratioP1;P2;durP2;ratioP2
6007;SDS011;3032;49.484;11.112;2023-04-24T00:00:57;2.80;;;2.60;;
6007;SDS011;3032;49.484;11.112;2023-04-24T00:03:24;3.47;;;3.00;;
6007;SDS011;3032;49.484;11.112;2023-04-24T00:05:49;3.33;;;3.03;;
6007;SDS011;3032;49.484;11.112;2023-04-24T00:08:16;2.95;;;2.65;;
6007;SDS011;3032;49.484;11.112;2023-04-24T00:10:42;3.10;;;2.80;;
6007;SDS011;3032;49.484;11.112;2023-04-24T00:13:07;3.37;;;2.20;;
6007;SDS011;3032;49.484;11.112;2023-04-24T00:15:33;2.70;;;2.50;;
6007;SDS011;3032;49.484;11.112;2023-04-24T00:17:59;2.60;;;2.40;;
6007;SDS011;3032;49.484;11.112;2023-04-24T00:20:26;2.88;;;2.67;;
6007;SDS011;3032;49.484;11.112;2023-04-24T00:22:53;2.50;;;2.30;;
6007;SDS011;3032;49.484;11.112;2023-04-24T00:25:18;2.43;;;2.23;;
6007;SDS011;3032;49.484;11.112;2023-04-24T00:27:44;3.40;;;3.10;;
6007;SDS011;3032;49.484;11.112;2023-04-24T00:30:10;3.37;;;2.80;;
6007;SDS011;3032;49.484;11.112;2023-04-24T00:32:35;3.13;;;2.60;;
6007;SDS011;3032;49.484;11.112;2023-04-24T00:35:01;2.53;;;2.43;;
6007;SDS011;3032;49.484;11.112;2023-04-24T00:37:26;2.77;;;2.57;;
6007;SDS011;3032;49.484;11.112;2023-04-24T00:39:52;2.07;;;1.97;;
6007;SDS011;3032;49.484;11.112;2023-04-24T00:42:18;2.93;;;2.40;;
6007;SDS011;3032;49.484;11.112;2023-04-24T00:44:43;3.27;;;2.40;;
6007;SDS011;3032;49.484;11.112;2023-04-24T00:47:09;3.35;;;2.80;;
6007;SDS011;3032;49.484;11.112;2023-04-24T00:49:36;3.75;;;3.03;;
6007;SDS011;3032;49.484;11.112;2023-04-24T00:52:02;6.67;;;2.90;;
6007;SDS011;3032;49.484;11.112;2023-04-24T00:54:32;3.28;;;2.55;;
6007;SDS011;3032;49.484;11.112;2023-04-24T00:56:58;2.67;;;2.50;;
6007;SDS011;3032;49.484;11.112;2023-04-24T00:59:23;3.03;;;2.80;;
6007;SDS011;3032;49.484;11.112;2023-04-24T01:01:49;5.33;;;2.67;;
6007;SDS011;3032;49.484;11.112;2023-04-24T01:04:14;3.97;;;3.27;;
6007;SDS011;3032;49.484;11.112;2023-04-24T01:06:42;4.40;;;3.10;;
6007;SDS011;3032;49.484;11.112;2023-04-24T01:09:09;3.13;;;2.92;;
6007;SDS011;3032;49.484;11.112;2023-04-24T01:11:36;2.85;;;2.65;;
6007;SDS011;3032;49.484;11.112;2023-04-24T01:14:02;5.47;;;3.60;;
6007;SDS011;3032;49.484;11.112;2023-04-24T01:16:28;5.17;;;3.10;;
6007;SDS011;3032;49.484;11.112;2023-04-24T01:18:54;4.17;;;3.13;;
6007;SDS011;3032;49.484;11.112;2023-04-24T01:21:19;2.80;;;2.37;;
6007;SDS011;3032;49.484;11.112;2023-04-24T01:23:46;3.67;;;3.05;;
6007;SDS011;3032;49.484;11.112;2023-04-24T01:26:13;4.87;;;3.00;;
6007;SDS011;3032;49.484;11.112;2023-04-24T01:28:42;4.03;;;3.50;;
6007;SDS011;3032;49.484;11.112;2023-04-24T01:31:07;3.93;;;2.97;;
6007;SDS011;3032;49.484;11.112;2023-04-24T01:33:33;5.80;;;3.50;;
6007;SDS011;3032;49.484;11.112;2023-04-24T01:35:59;4.13;;;3.73;;
6007;SDS011;3032;49.484;11.112;2023-04-24T01:38:25;4.47;;;2.80;;
6007;SDS011;3032;49.484;11.112;2023-04-24T01:40:50;4.20;;;3.80;;
6007;SDS011;3032;49.484;11.112;2023-04-24T01:43:17;5.28;;;3.38;;
6007;SDS011;3032;49.484;11.112;2023-04-24T01:45:43;3.92;;;2.95;;
6007;SDS011;3032;49.484;11.112;2023-04-24T01:48:09;3.40;;;3.10;;
6007;SDS011;3032;49.484;11.112;2023-04-24T01:50:36;3.17;;;2.65;;
6007;SDS011;3032;49.484;11.112;2023-04-24T01:53:01;2.10;;;1.90;;
6007;SDS011;3032;49.484;11.112;2023-04-24T01:55:27;4.97;;;2.60;;
6007;SDS011;3032;49.484;11.112;2023-04-24T01:57:52;2.40;;;2.13;;
6007;SDS011;3032;49.484;11.112;2023-04-24T02:00:21;3.38;;;2.00;;
6007;SDS011;3032;49.484;11.112;2023-04-24T02:02:47;2.00;;;1.90;;
6007;SDS011;3032;49.484;11.112;2023-04-24T02:05:13;1.67;;;1.57;;
6007;SDS011;3032;49.484;11.112;2023-04-24T02:07:38;4.03;;;1.80;;
6007;SDS011;3032;49.484;11.112;2023-04-24T02:10:04;2.00;;;1.90;;
6007;SDS011;3032;49.484;11.112;2023-04-24T02:12:30;2.70;;;1.90;;
6007;SDS011;3032;49.484;11.112;2023-04-24T02:14:56;2.03;;;1.40;;
6007;SDS011;3032;49.484;11.112;2023-04-24T02:17:22;4.07;;;1.47;;
6007;SDS011;3032;49.484;11.112;2023-04-24T02:19:47;1.50;;;1.40;;
6007;SDS011;3032;49.484;11.112;2023-04-24T02:22:13;2.00;;;1.33;;
6007;SDS011;3032;49.484;11.112;2023-04-24T02:24:39;2.27;;;1.53;;
6007;SDS011;3032;49.484;11.112;2023-04-24T02:27:04;1.83;;;1.73;;
6007;SDS011;3032;49.484;11.112;2023-04-24T02:29:30;1.87;;;1.70;;
6007;SDS011;3032;49.484;11.112;2023-04-24T02:31:56;1.40;;;1.30;;
6007;SDS011;3032;49.484;11.112;2023-04-24T02:34:22;1.90;;;1.40;;
6007;SDS011;3032;49.484;11.112;2023-04-24T02:36:48;1.87;;;1.77;;
6007;SDS011;3032;49.484;11.112;2023-04-24T02:39:14;1.43;;;1.27;;
6007;SDS011;3032;49.484;11.112;2023-04-24T02:41:41;1.65;;;1.55;;
6007;SDS011;3032;49.484;11.112;2023-04-24T02:44:07;1.70;;;1.20;;
6007;SDS011;3032;49.484;11.112;2023-04-24T02:46:33;1.37;;;1.30;;
6007;SDS011;3032;49.484;11.112;2023-04-24T02:48:58;1.57;;;1.47;;
6007;SDS011;3032;49.484;11.112;2023-04-24T02:51:24;2.00;;;1.63;;
6007;SDS011;3032;49.484;11.112;2023-04-24T02:53:50;3.97;;;1.50;;
6007;SDS011;3032;49.484;11.112;2023-04-24T02:56:15;1.47;;;1.47;;
6007;SDS011;3032;49.484;11.112;2023-04-24T02:58:41;2.03;;;1.60;;
6007;SDS011;3032;49.484;11.112;2023-04-24T03:01:07;1.95;;;1.60;;
6007;SDS011;3032;49.484;11.112;2023-04-24T03:03:34;3.45;;;1.90;;
6007;SDS011;3032;49.484;11.112;2023-04-24T03:06:00;1.60;;;1.50;;
6007;SDS011;3032;49.484;11.112;2023-04-24T03:08:26;1.83;;;1.23;;
6007;SDS011;3032;49.484;11.112;2023-04-24T03:10:52;1.70;;;1.57;;
6007;SDS011;3032;49.484;11.112;2023-04-24T03:13:18;3.83;;;2.17;;
6007;SDS011;3032;49.484;11.112;2023-04-24T03:15:43;2.50;;;2.30;;
6007;SDS011;3032;49.484;11.112;2023-04-24T03:18:11;3.25;;;2.00;;
6007;SDS011;3032;49.484;11.112;2023-04-24T03:20:37;3.60;;;1.83;;
6007;SDS011;3032;49.484;11.112;2023-04-24T03:23:02;2.50;;;2.40;;
6007;SDS011;3032;49.484;11.112;2023-04-24T03:25:28;2.83;;;2.10;;
6007;SDS011;3032;49.484;11.112;2023-04-24T03:27:53;2.27;;;2.07;;
6007;SDS011;3032;49.484;11.112;2023-04-24T03:30:19;2.20;;;1.97;;
6007;SDS011;3032;49.484;11.112;2023-04-24T03:32:45;5.97;;;2.37;;
6007;SDS011;3032;49.484;11.112;2023-04-24T03:35:11;2.90;;;2.20;;
6007;SDS011;3032;49.484;11.112;2023-04-24T03:37:36;2.87;;;2.47;;
6007;SDS011;3032;49.484;11.112;2023-04-24T03:40:02;2.10;;;2.00;;
6007;SDS011;3032;49.484;11.112;2023-04-24T03:42:27;2.30;;;2.17;;
6007;SDS011;3032;49.484;11.112;2023-04-24T03:44:53;3.03;;;2.40;;
6007;SDS011;3032;49.484;11.112;2023-04-24T03:47:19;2.00;;;1.90;;
6007;SDS011;3032;49.484;11.112;2023-04-24T03:49:44;2.60;;;2.40;;
6007;SDS011;3032;49.484;11.112;2023-04-24T03:52:10;2.60;;;2.40;;
6007;SDS011;3032;49.484;11.112;2023-04-24T03:54:36;4.10;;;2.17;;
6007;SDS011;3032;49.484;11.112;2023-04-24T03:57:01;3.03;;;2.30;;
6007;SDS011;3032;49.484;11.112;2023-04-24T03:59:28;4.45;;;2.13;;
6007;SDS011;3032;49.484;11.112;2023-04-24T04:01:53;2.53;;;2.33;;
6007;SDS011;3032;49.484;11.112;2023-04-24T04:04:19;2.60;;;2.40;;
6007;SDS011;3032;49.484;11.112;2023-04-24T04:06:44;2.37;;;2.17;;
6007;SDS011;3032;49.484;11.112;2023-04-24T04:09:11;2.55;;;2.45;;
6007;SDS011;3032;49.484;11.112;2023-04-24T04:11:37;2.70;;;2.03;;
6007;SDS011;3032;49.484;11.112;2023-04-24T04:14:02;2.20;;;2.00;;
6007;SDS011;3032;49.484;11.112;2023-04-24T04:16:28;2.17;;;2.03;;
6007;SDS011;3032;49.484;11.112;2023-04-24T04:18:54;2.40;;;2.03;;
6007;SDS011;3032;49.484;11.112;2023-04-24T04:21:20;2.22;;;2.00;;
6007;SDS011;3032;49.484;11.112;2023-04-24T04:23:45;2.30;;;2.20;;
6007;SDS011;3032;49.484;11.112;2023-04-24T04:26:11;2.10;;;1.73;;
6007;SDS011;3032;49.484;11.112;2023-04-24T04:28:37;2.30;;;1.90;;
6007;SDS011;3032;49.484;11.112;2023-04-24T04:31:04;5.60;;;2.28;;
6007;SDS011;3032;49.484;11.112;2023-04-24T04:33:29;2.30;;;2.10;;
6007;SDS011;3032;49.484;11.112;2023-04-24T04:35:55;2.42;;;1.80;;
6007;SDS011;3032;49.484;11.112;2023-04-24T04:38:23;2.05;;;1.95;;
6007;SDS011;3032;49.484;11.112;2023-04-24T04:40:51;2.10;;;2.00;;
6007;SDS011;3032;49.484;11.112;2023-04-24T04:43:17;2.43;;;2.20;;
6007;SDS011;3032;49.484;11.112;2023-04-24T04:45:42;2.20;;;2.10;;
6007;SDS011;3032;49.484;11.112;2023-04-24T04:48:08;2.97;;;2.23;;
6007;SDS011;3032;49.484;11.112;2023-04-24T04:50:37;2.75;;;1.92;;
6007;SDS011;3032;49.484;11.112;2023-04-24T04:53:02;2.13;;;1.93;;
6007;SDS011;3032;49.484;11.112;2023-04-24T04:55:28;2.50;;;1.90;;
6007;SDS011;3032;49.484;11.112;2023-04-24T04:57:53;2.20;;;2.00;;
6007;SDS011;3032;49.484;11.112;2023-04-24T05:00:20;1.77;;;1.67;;
6007;SDS011;3032;49.484;11.112;2023-04-24T05:02:46;1.90;;;1.80;;
6007;SDS011;3032;49.484;11.112;2023-04-24T05:05:12;2.57;;;2.37;;
6007;SDS011;3032;49.484;11.112;2023-04-24T05:07:38;2.83;;;2.23;;
6007;SDS011;3032;49.484;11.112;2023-04-24T05:10:03;3.00;;;1.90;;
6007;SDS011;3032;49.484;11.112;2023-04-24T05:12:29;2.83;;;2.60;;
6007;SDS011;3032;49.484;11.112;2023-04-24T05:14:57;2.47;;;2.28;;
6007;SDS011;3032;49.484;11.112;2023-04-24T05:17:23;3.17;;;2.47;;
6007;SDS011;3032;49.484;11.112;2023-04-24T05:19:48;2.53;;;2.40;;
6007;SDS011;3032;49.484;11.112;2023-04-24T05:22:14;3.20;;;2.00;;
6007;SDS011;3032;49.484;11.112;2023-04-24T05:24:40;4.40;;;2.80;;
6007;SDS011;3032;49.484;11.112;2023-04-24T05:27:05;2.97;;;2.77;;
6007;SDS011;3032;49.484;11.112;2023-04-24T05:29:31;4.33;;;2.70;;
6007;SDS011;3032;49.484;11.112;2023-04-24T05:31:58;4.80;;;3.17;;
6007;SDS011;3032;49.484;11.112;2023-04-24T05:34:24;3.45;;;3.15;;
6007;SDS011;3032;49.484;11.112;2023-04-24T05:36:49;2.53;;;2.33;;
6007;SDS011;3032;49.484;11.112;2023-04-24T05:39:15;3.17;;;2.00;;
6007;SDS011;3032;49.484;11.112;2023-04-24T05:41:41;2.90;;;2.23;;
6007;SDS011;3032;49.484;11.112;2023-04-24T05:44:07;3.30;;;2.37;;
6007;SDS011;3032;49.484;11.112;2023-04-24T05:46:32;3.13;;;2.80;;
6007;SDS011;3032;49.484;11.112;2023-04-24T05:48:58;3.03;;;2.77;;
6007;SDS011;3032;49.484;11.112;2023-04-24T05:51:24;2.70;;;2.50;;
6007;SDS011;3032;49.484;11.112;2023-04-24T05:53:50;2.95;;;2.60;;
6007;SDS011;3032;49.484;11.112;2023-04-24T05:56:16;6.10;;;2.23;;
6007;SDS011;3032;49.484;11.112;2023-04-24T05:58:42;3.93;;;3.10;;
6007;SDS011;3032;49.484;11.112;2023-04-24T06:01:08;2.23;;;2.10;;
6007;SDS011;3032;49.484;11.112;2023-04-24T06:03:33;3.27;;;3.00;;
6007;SDS011;3032;49.484;11.112;2023-04-24T06:05:59;3.63;;;3.30;;
6007;SDS011;3032;49.484;11.112;2023-04-24T06:08:24;4.80;;;2.83;;
6007;SDS011;3032;49.484;11.112;2023-04-24T06:10:50;4.00;;;2.55;;
6007;SDS011;3032;49.484;11.112;2023-04-24T06:13:16;3.40;;;3.10;;
6007;SDS011;3032;49.484;11.112;2023-04-24T06:15:41;4.90;;;3.00;;
6007;SDS011;3032;49.484;11.112;2023-04-24T06:18:08;2.90;;;2.70;;
6007;SDS011;3032;49.484;11.112;2023-04-24T06:20:35;2.90;;;2.65;;
6007;SDS011;3032;49.484;11.112;2023-04-24T06:23:01;7.13;;;2.90;;
6007;SDS011;3032;49.484;11.112;2023-04-24T06:25:28;2.90;;;2.70;;
6007;SDS011;3032;49.484;11.112;2023-04-24T06:27:54;2.25;;;2.05;;
6007;SDS011;3032;49.484;11.112;2023-04-24T06:30:20;5.53;;;2.50;;
6007;SDS011;3032;49.484;11.112;2023-04-24T06:32:46;2.33;;;2.13;;
6007;SDS011;3032;49.484;11.112;2023-04-24T06:35:11;3.00;;;2.67;;
6007;SDS011;3032;49.484;11.112;2023-04-24T06:37:38;2.87;;;2.07;;
6007;SDS011;3032;49.484;11.112;2023-04-24T06:40:05;2.47;;;2.28;;
6007;SDS011;3032;49.484;11.112;2023-04-24T06:42:31;2.58;;;2.33;;
6007;SDS011;3032;49.484;11.112;2023-04-24T06:44:57;2.40;;;2.20;;
6007;SDS011;3032;49.484;11.112;2023-04-24T06:47:22;1.73;;;1.50;;
6007;SDS011;3032;49.484;11.112;2023-04-24T06:49:48;1.57;;;1.47;;
6007;SDS011;3032;49.484;11.112;2023-04-24T06:52:15;1.88;;;1.50;;
6007;SDS011;3032;49.484;11.112;2023-04-24T06:54:41;1.67;;;1.13;;
6007;SDS011;3032;49.484;11.112;2023-04-24T06:57:07;1.27;;;0.90;;
6007;SDS011;3032;49.484;11.112;2023-04-24T06:59:33;1.73;;;1.02;;
6007;SDS011;3032;49.484;11.112;2023-04-24T07:01:59;1.00;;;0.90;;
6007;SDS011;3032;49.484;11.112;2023-04-24T07:04:25;2.03;;;1.10;;
6007;SDS011;3032;49.484;11.112;2023-04-24T07:06:51;3.38;;;1.20;;
6007;SDS011;3032;49.484;11.112;2023-04-24T07:09:19;2.55;;;1.60;;
6007;SDS011;3032;49.484;11.112;2023-04-24T07:11:45;1.70;;;1.35;;
6007;SDS011;3032;49.484;11.112;2023-04-24T07:14:11;2.67;;;1.50;;
6007;SDS011;3032;49.484;11.112;2023-04-24T07:16:37;1.55;;;1.30;;
6007;SDS011;3032;49.484;11.112;2023-04-24T07:19:03;1.60;;;1.50;;
6007;SDS011;3032;49.484;11.112;2023-04-24T07:21:29;1.33;;;1.20;;
6007;SDS011;3032;49.484;11.112;2023-04-24T07:23:56;1.42;;;1.33;;
6007;SDS011;3032;49.484;11.112;2023-04-24T07:26:22;1.50;;;1.33;;
6007;SDS011;3032;49.484;11.112;2023-04-24T07:28:48;1.30;;;1.20;;
6007;SDS011;3032;49.484;11.112;2023-04-24T07:31:14;2.60;;;1.40;;
6007;SDS011;3032;49.484;11.112;2023-04-24T07:33:40;1.42;;;1.20;;
6007;SDS011;3032;49.484;11.112;2023-04-24T07:36:05;1.40;;;1.30;;
6007;SDS011;3032;49.484;11.112;2023-04-24T07:38:31;3.67;;;1.60;;
6007;SDS011;3032;49.484;11.112;2023-04-24T07:40:57;1.37;;;1.27;;
6007;SDS011;3032;49.484;11.112;2023-04-24T07:43:22;1.10;;;1.10;;
6007;SDS011;3032;49.484;11.112;2023-04-24T07:45:49;10.57;;;1.70;;
6007;SDS011;3032;49.484;11.112;2023-04-24T07:48:15;1.50;;;1.50;;
6007;SDS011;3032;49.484;11.112;2023-04-24T07:50:42;1.80;;;1.30;;
6007;SDS011;3032;49.484;11.112;2023-04-24T07:53:08;1.30;;;1.20;;
6007;SDS011;3032;49.484;11.112;2023-04-24T07:55:34;2.50;;;1.70;;
6007;SDS011;3032;49.484;11.112;2023-04-24T07:57:59;2.17;;;1.60;;
6007;SDS011;3032;49.484;11.112;2023-04-24T08:00:25;1.33;;;1.33;;
6007;SDS011;3032;49.484;11.112;2023-04-24T08:02:51;1.83;;;1.70;;
6007;SDS011;3032;49.484;11.112;2023-04-24T08:05:16;1.87;;;1.77;;
6007;SDS011;3032;49.484;11.112;2023-04-24T08:07:42;1.80;;;1.70;;
6007;SDS011;3032;49.484;11.112;2023-04-24T08:10:09;2.30;;;2.10;;
6007;SDS011;3032;49.484;11.112;2023-04-24T08:12:35;3.83;;;2.28;;
6007;SDS011;3032;49.484;11.112;2023-04-24T08:15:02;2.10;;;2.00;;
6007;SDS011;3032;49.484;11.112;2023-04-24T08:17:27;2.27;;;2.17;;
6007;SDS011;3032;49.484;11.112;2023-04-24T08:19:53;2.53;;;2.27;;
6007;SDS011;3032;49.484;11.112;2023-04-24T08:22:26;2.30;;;2.10;;
6007;SDS011;3032;49.484;11.112;2023-04-24T08:24:54;2.10;;;2.00;;
6007;SDS011;3032;49.484;11.112;2023-04-24T08:27:21;2.38;;;2.25;;
6007;SDS011;3032;49.484;11.112;2023-04-24T08:29:48;2.25;;;2.15;;
6007;SDS011;3032;49.484;11.112;2023-04-24T08:32:14;7.73;;;2.87;;
6007;SDS011;3032;49.484;11.112;2023-04-24T08:34:39;3.13;;;2.63;;
6007;SDS011;3032;49.484;11.112;2023-04-24T08:37:05;3.80;;;2.57;;
6007;SDS011;3032;49.484;11.112;2023-04-24T08:39:30;2.30;;;2.00;;
6007;SDS011;3032;49.484;11.112;2023-04-24T08:41:56;2.80;;;2.70;;
6007;SDS011;3032;49.484;11.112;2023-04-24T08:44:22;2.85;;;2.13;;
6007;SDS011;3032;49.484;11.112;2023-04-24T08:46:48;2.97;;;2.20;;
6007;SDS011;3032;49.484;11.112;2023-04-24T08:49:14;2.77;;;2.57;;
6007;SDS011;3032;49.484;11.112;2023-04-24T08:51:41;2.53;;;2.42;;
6007;SDS011;3032;49.484;11.112;2023-04-24T08:54:07;3.75;;;2.20;;
6007;SDS011;3032;49.484;11.112;2023-04-24T08:56:33;4.55;;;2.40;;
6007;SDS011;3032;49.484;11.112;2023-04-24T08:59:03;2.60;;;2.40;;
6007;SDS011;3032;49.484;11.112;2023-04-24T09:01:29;1.88;;;1.77;;
6007;SDS011;3032;49.484;11.112;2023-04-24T09:03:58;3.33;;;2.28;;
6007;SDS011;3032;49.484;11.112;2023-04-24T09:06:28;2.28;;;2.17;;
6007;SDS011;3032;49.484;11.112;2023-04-24T09:08:55;2.47;;;2.28;;
6007;SDS011;3032;49.484;11.112;2023-04-24T09:11:21;2.85;;;2.65;;
6007;SDS011;3032;49.484;11.112;2023-04-24T09:13:49;2.33;;;2.22;;
6007;SDS011;3032;49.484;11.112;2023-04-24T09:16:16;4.40;;;2.58;;
6007;SDS011;3032;49.484;11.112;2023-04-24T09:18:42;2.83;;;2.63;;
6007;SDS011;3032;49.484;11.112;2023-04-24T09:21:07;2.20;;;2.10;;
6007;SDS011;3032;49.484;11.112;2023-04-24T09:23:34;3.10;;;2.90;;
6007;SDS011;3032;49.484;11.112;2023-04-24T09:26:00;2.50;;;2.30;;
6007;SDS011;3032;49.484;11.112;2023-04-24T09:31:04;2.00;;;1.90;;
6007;SDS011;3032;49.484;11.112;2023-04-24T09:33:32;2.78;;;2.58;;
6007;SDS011;3032;49.484;11.112;2023-04-24T09:35:58;2.70;;;2.50;;
6007;SDS011;3032;49.484;11.112;2023-04-24T09:38:30;2.75;;;2.55;;
6007;SDS011;3032;49.484;11.112;2023-04-24T09:41:01;2.40;;;2.30;;
6007;SDS011;3032;49.484;11.112;2023-04-24T09:43:30;3.13;;;2.85;;
6007;SDS011;3032;49.484;11.112;2023-04-24T09:45:57;2.80;;;2.60;;
6007;SDS011;3032;49.484;11.112;2023-04-24T09:48:31;2.20;;;2.00;;
6007;SDS011;3032;49.484;11.112;2023-04-24T09:50:58;2.55;;;2.10;;
6007;SDS011;3032;49.484;11.112;2023-04-24T09:53:25;2.20;;;2.10;;
6007;SDS011;3032;49.484;11.112;2023-04-24T09:55:52;1.80;;;1.70;;
6007;SDS011;3032;49.484;11.112;2023-04-24T09:58:18;2.03;;;1.93;;
6007;SDS011;3032;49.484;11.112;2023-04-24T10:00:50;1.95;;;1.55;;
6007;SDS011;3032;49.484;11.112;2023-04-24T10:03:19;2.17;;;1.77;;
6007;SDS011;3032;49.484;11.112;2023-04-24T10:05:45;2.13;;;1.53;;
6007;SDS011;3032;49.484;11.112;2023-04-24T10:08:12;1.77;;;1.67;;
6007;SDS011;3032;49.484;11.112;2023-04-24T10:10:39;1.70;;;1.60;;
6007;SDS011;3032;49.484;11.112;2023-04-24T10:13:07;1.63;;;1.52;;
6007;SDS011;3032;49.484;11.112;2023-04-24T10:15:34;1.70;;;1.70;;
6007;SDS011;3032;49.484;11.112;2023-04-24T10:18:00;1.50;;;1.40;;
6007;SDS011;3032;49.484;11.112;2023-04-24T10:20:26;1.30;;;1.30;;
6007;SDS011;3032;49.484;11.112;2023-04-24T10:22:57;2.95;;;1.60;;
6007;SDS011;3032;49.484;11.112;2023-04-24T10:25:24;1.35;;;1.25;;
6007;SDS011;3032;49.484;11.112;2023-04-24T10:27:53;1.25;;;1.25;;
6007;SDS011;3032;49.484;11.112;2023-04-24T10:30:22;1.45;;;1.23;;
6007;SDS011;3032;49.484;11.112;2023-04-24T10:32:48;2.07;;;1.50;;
6007;SDS011;3032;49.484;11.112;2023-04-24T10:35:14;1.40;;;1.30;;
6007;SDS011;3032;49.484;11.112;2023-04-24T10:37:42;1.40;;;1.40;;
6007;SDS011;3032;49.484;11.112;2023-04-24T10:40:10;1.35;;;1.25;;
6007;SDS011;3032;49.484;11.112;2023-04-24T10:42:39;1.98;;;1.50;;
6007;SDS011;3032;49.484;11.112;2023-04-24T10:45:18;2.90;;;1.30;;
6007;SDS011;3032;49.484;11.112;2023-04-24T10:47:53;1.65;;;1.55;;
6007;SDS011;3032;49.484;11.112;2023-04-24T10:50:29;1.27;;;1.17;;
6007;SDS011;3032;49.484;11.112;2023-04-24T10:53:11;1.85;;;1.48;;
6007;SDS011;3032;49.484;11.112;2023-04-24T10:55:39;1.25;;;1.15;;
6007;SDS011;3032;49.484;11.112;2023-04-24T10:58:13;3.30;;;1.20;;
6007;SDS011;3032;49.484;11.112;2023-04-24T11:00:40;1.10;;;1.10;;
6007;SDS011;3032;49.484;11.112;2023-04-24T11:03:06;2.55;;;1.60;;
6007;SDS011;3032;49.484;11.112;2023-04-24T11:08:32;1.10;;;1.10;;
6007;SDS011;3032;49.484;11.112;2023-04-24T11:11:09;1.40;;;1.30;;
6007;SDS011;3032;49.484;11.112;2023-04-24T11:19:03;1.63;;;1.52;;
6007;SDS011;3032;49.484;11.112;2023-04-24T11:21:55;1.95;;;1.85;;
6007;SDS011;3032;49.484;11.112;2023-04-24T11:24:32;1.20;;;1.10;;
6007;SDS011;3032;49.484;11.112;2023-04-24T11:27:15;2.20;;;2.10;;
6007;SDS011;3032;49.484;11.112;2023-04-24T11:32:16;1.80;;;1.70;;
6007;SDS011;3032;49.484;11.112;2023-04-24T11:34:49;1.80;;;1.70;;
6007;SDS011;3032;49.484;11.112;2023-04-24T11:37:21;1.85;;;1.77;;
6007;SDS011;3032;49.484;11.112;2023-04-24T11:39:50;2.80;;;2.00;;
6007;SDS011;3032;49.484;11.112;2023-04-24T11:42:16;1.73;;;1.63;;
6007;SDS011;3032;49.484;11.112;2023-04-24T11:44:43;3.58;;;1.80;;
6007;SDS011;3032;49.484;11.112;2023-04-24T11:47:08;3.80;;;2.20;;
6007;SDS011;3032;49.484;11.112;2023-04-24T11:49:36;2.40;;;2.30;;
6007;SDS011;3032;49.484;11.112;2023-04-24T11:52:02;2.45;;;1.88;;
6007;SDS011;3032;49.484;11.112;2023-04-24T11:54:28;2.13;;;2.03;;
6007;SDS011;3032;49.484;11.112;2023-04-24T11:56:55;2.00;;;1.90;;
6007;SDS011;3032;49.484;11.112;2023-04-24T11:59:21;5.25;;;2.20;;
6007;SDS011;3032;49.484;11.112;2023-04-24T12:01:47;2.07;;;1.97;;
6007;SDS011;3032;49.484;11.112;2023-04-24T12:04:13;2.58;;;1.83;;
6007;SDS011;3032;49.484;11.112;2023-04-24T12:06:40;1.70;;;1.60;;
6007;SDS011;3032;49.484;11.112;2023-04-24T12:09:23;3.10;;;1.90;;
6007;SDS011;3032;49.484;11.112;2023-04-24T12:11:55;1.80;;;1.70;;
6007;SDS011;3032;49.484;11.112;2023-04-24T12:14:22;2.17;;;1.95;;
6007;SDS011;3032;49.484;11.112;2023-04-24T12:16:48;1.83;;;1.73;;
6007;SDS011;3032;49.484;11.112;2023-04-24T12:19:21;2.75;;;2.30;;
6007;SDS011;3032;49.484;11.112;2023-04-24T12:22:04;2.00;;;1.90;;
6007;SDS011;3032;49.484;11.112;2023-04-24T12:24:31;2.55;;;2.45;;
6007;SDS011;3032;49.484;11.112;2023-04-24T12:26:57;2.13;;;2.03;;
6007;SDS011;3032;49.484;11.112;2023-04-24T12:29:23;2.75;;;2.20;;
6007;SDS011;3032;49.484;11.112;2023-04-24T12:31:50;2.28;;;2.17;;
6007;SDS011;3032;49.484;11.112;2023-04-24T12:34:20;3.53;;;2.10;;
6007;SDS011;3032;49.484;11.112;2023-04-24T12:36:46;2.63;;;1.90;;
6007;SDS011;3032;49.484;11.112;2023-04-24T12:39:16;1.98;;;1.77;;
6007;SDS011;3032;49.484;11.112;2023-04-24T12:41:56;2.30;;;1.80;;
6007;SDS011;3032;49.484;11.112;2023-04-24T12:44:32;2.25;;;2.15;;
6007;SDS011;3032;49.484;11.112;2023-04-24T12:46:59;1.90;;;1.80;;
6007;SDS011;3032;49.484;11.112;2023-04-24T12:49:26;5.13;;;1.95;;
6007;SDS011;3032;49.484;11.112;2023-04-24T12:51:52;2.50;;;2.08;;
6007;SDS011;3032;49.484;11.112;2023-04-24T12:54:18;2.00;;;1.90;;
6007;SDS011;3032;49.484;11.112;2023-04-24T12:56:43;2.33;;;1.70;;
6007;SDS011;3032;49.484;11.112;2023-04-24T12:59:09;1.60;;;1.50;;
6007;SDS011;3032;49.484;11.112;2023-04-24T13:01:34;2.40;;;1.63;;
6007;SDS011;3032;49.484;11.112;2023-04-24T13:04:00;1.73;;;1.63;;
6007;SDS011;3032;49.484;11.112;2023-04-24T13:06:26;1.70;;;1.60;;
6007;SDS011;3032;49.484;11.112;2023-04-24T13:08:51;1.60;;;1.50;;
6007;SDS011;3032;49.484;11.112;2023-04-24T13:11:17;1.80;;;1.70;;
6007;SDS011;3032;49.484;11.112;2023-04-24T13:13:43;1.90;;;1.80;;
6007;SDS011;3032;49.484;11.112;2023-04-24T13:16:08;1.73;;;1.67;;
6007;SDS011;3032;49.484;11.112;2023-04-24T13:18:34;2.17;;;2.07;;
6007;SDS011;3032;49.484;11.112;2023-04-24T13:21:00;1.90;;;1.80;;
6007;SDS011;3032;49.484;11.112;2023-04-24T13:23:25;1.80;;;1.70;;
6007;SDS011;3032;49.484;11.112;2023-04-24T13:25:51;1.60;;;1.53;;
6007;SDS011;3032;49.484;11.112;2023-04-24T13:28:17;2.13;;;2.03;;
6007;SDS011;3032;49.484;11.112;2023-04-24T13:30:42;2.40;;;1.63;;
6007;SDS011;3032;49.484;11.112;2023-04-24T13:33:08;1.83;;;1.70;;
6007;SDS011;3032;49.484;11.112;2023-04-24T13:35:34;2.07;;;1.97;;
6007;SDS011;3032;49.484;11.112;2023-04-24T13:37:59;2.37;;;1.87;;
6007;SDS011;3032;49.484;11.112;2023-04-24T13:40:26;1.88;;;1.77;;
6007;SDS011;3032;49.484;11.112;2023-04-24T13:42:52;1.95;;;1.85;;
6007;SDS011;3032;49.484;11.112;2023-04-24T13:45:18;2.07;;;1.87;;
6007;SDS011;3032;49.484;11.112;2023-04-24T13:47:43;2.27;;;2.03;;
6007;SDS011;3032;49.484;11.112;2023-04-24T13:50:09;2.13;;;2.03;;
6007;SDS011;3032;49.484;11.112;2023-04-24T13:52:35;1.40;;;1.40;;
6007;SDS011;3032;49.484;11.112;2023-04-24T13:55:00;1.27;;;1.20;;
6007;SDS011;3032;49.484;11.112;2023-04-24T13:57:26;2.90;;;1.30;;
6007;SDS011;3032;49.484;11.112;2023-04-24T13:59:53;3.17;;;2.00;;
6007;SDS011;3032;49.484;11.112;2023-04-24T14:02:20;1.80;;;1.70;;
6007;SDS011;3032;49.484;11.112;2023-04-24T14:04:46;1.80;;;1.70;;
6007;SDS011;3032;49.484;11.112;2023-04-24T14:07:13;1.70;;;1.60;;
6007;SDS011;3032;49.484;11.112;2023-04-24T14:09:38;1.90;;;1.80;;
6007;SDS011;3032;49.484;11.112;2023-04-24T14:12:04;2.53;;;2.33;;
6007;SDS011;3032;49.484;11.112;2023-04-24T14:14:30;3.45;;;2.00;;
6007;SDS011;3032;49.484;11.112;2023-04-24T14:16:56;2.50;;;2.30;;
6007;SDS011;3032;49.484;11.112;2023-04-24T14:19:22;2.90;;;2.70;;
6007;SDS011;3032;49.484;11.112;2023-04-24T14:21:47;2.77;;;2.67;;
6007;SDS011;3032;49.484;11.112;2023-04-24T14:24:13;3.20;;;2.43;;
6007;SDS011;3032;49.484;11.112;2023-04-24T14:26:38;2.67;;;2.47;;
6007;SDS011;3032;49.484;11.112;2023-04-24T14:29:04;2.60;;;2.37;;
6007;SDS011;3032;49.484;11.112;2023-04-24T14:31:30;3.55;;;2.10;;
6007;SDS011;3032;49.484;11.112;2023-04-24T14:33:56;2.80;;;2.60;;
6007;SDS011;3032;49.484;11.112;2023-04-24T14:36:22;2.38;;;2.28;;
6007;SDS011;3032;49.484;11.112;2023-04-24T14:38:48;2.80;;;2.70;;
6007;SDS011;3032;49.484;11.112;2023-04-24T14:41:14;2.95;;;2.75;;
6007;SDS011;3032;49.484;11.112;2023-04-24T14:43:39;2.40;;;2.30;;
6007;SDS011;3032;49.484;11.112;2023-04-24T14:46:05;2.60;;;2.50;;
6007;SDS011;3032;49.484;11.112;2023-04-24T14:48:31;4.97;;;2.47;;
6007;SDS011;3032;49.484;11.112;2023-04-24T14:50:56;1.63;;;1.53;;
6007;SDS011;3032;49.484;11.112;2023-04-24T14:53:23;1.80;;;1.70;;
6007;SDS011;3032;49.484;11.112;2023-04-24T14:55:48;2.10;;;1.80;;
6007;SDS011;3032;49.484;11.112;2023-04-24T14:58:14;3.43;;;1.97;;
6007;SDS011;3032;49.484;11.112;2023-04-24T15:00:40;3.17;;;2.97;;
6007;SDS011;3032;49.484;11.112;2023-04-24T15:03:05;2.53;;;2.43;;
6007;SDS011;3032;49.484;11.112;2023-04-24T15:05:32;3.58;;;2.15;;
6007;SDS011;3032;49.484;11.112;2023-04-24T15:07:57;2.47;;;2.27;;
6007;SDS011;3032;49.484;11.112;2023-04-24T15:10:23;1.90;;;1.87;;